sensor_id;sensor_type;location;lat;lon;timestamp;P1;durP1;ratioP1;P2;durP2;ratioP2
61330;SDS011;71993;52.478;-1.918;2023-08-06T03:04:03;2.90;;;1.95;;
61330;SDS011;71993;52.478;-1.918;2023-08-06T03:06:40;2.65;;;1.88;;
61330;SDS011;71993;52.478;-1.918;2023-08-06T03:09:10;3.53;;;2.00;;
61330;SDS011;71993;52.478;-1.918;2023-08-06T03:11:41;4.60;;;1.90;;
61330;SDS011;71993;52.478;-1.918;2023-08-06T03:14:15;2.35;;;2.15;;
61330;SDS011;71993;52.478;-1.918;2023-08-06T03:16:46;4.05;;;2.10;;
61330;SDS011;71993;52.478;-1.918;2023-08-06T03:19:22;2.92;;;2.13;;
61330;SDS011;71993;52.478;-1.918;2023-08-06T03:21:53;2.17;;;1.77;;
61330;SDS011;71993;52.478;-1.918;2023-08-06T03:24:24;2.95;;;2.03;;
61330;SDS011;71993;52.478;-1.918;2023-08-06T03:26:54;2.83;;;2.00;;
61330;SDS011;71993;52.478;-1.918;2023-08-06T03:29:26;3.47;;;1.90;;
61330;SDS011;71993;52.478;-1.918;2023-08-06T03:31:59;3.10;;;2.20;;
61330;SDS011;71993;52.478;-1.918;2023-08-06T03:34:33;3.60;;;1.92;;
61330;SDS011;71993;52.478;-1.918;2023-08-06T03:37:04;4.47;;;2.13;;
61330;SDS011;71993;52.478;-1.918;2023-08-06T03:39:35;2.50;;;1.75;;
61330;SDS011;71993;52.478;-1.918;2023-08-06T03:42:08;3.25;;;2.00;;
61330;SDS011;71993;52.478;-1.918;2023-08-06T03:44:39;3.55;;;1.90;;
61330;SDS011;71993;52.478;-1.918;2023-08-06T03:47:10;2.40;;;1.83;;
61330;SDS011;71993;52.478;-1.918;2023-08-06T03:49:46;5.47;;;1.92;;
61330;SDS011;71993;52.478;-1.918;2023-08-06T03:52:17;4.55;;;1.95;;
61330;SDS011;71993;52.478;-1.918;2023-08-06T03:54:49;3.67;;;2.00;;
61330;SDS011;71993;52.478;-1.918;2023-08-06T03:57:19;3.10;;;1.75;;
61330;SDS011;71993;52.478;-1.918;2023-08-06T03:59:50;2.45;;;1.83;;
61330;SDS011;71993;52.478;-1.918;2023-08-06T04:02:21;2.88;;;1.80;;
61330;SDS011;71993;52.478;-1.918;2023-08-06T04:04:54;2.78;;;1.98;;
61330;SDS011;71993;52.478;-1.918;2023-08-06T04:07:26;2.58;;;1.88;;
61330;SDS011;71993;52.478;-1.918;2023-08-06T04:09:59;2.55;;;1.63;;
61330;SDS011;71993;52.478;-1.918;2023-08-06T04:12:30;3.72;;;2.10;;
61330;SDS011;71993;52.478;-1.918;2023-08-06T04:15:05;4.38;;;1.90;;
61330;SDS011;71993;52.478;-1.918;2023-08-06T04:17:36;3.05;;;1.90;;
61330;SDS011;71993;52.478;-1.918;2023-08-06T04:20:11;4.40;;;2.08;;
61330;SDS011;71993;52.478;-1.918;2023-08-06T04:22:44;3.90;;;1.73;;
61330;SDS011;71993;52.478;-1.918;2023-08-06T04:25:15;3.38;;;1.90;;
61330;SDS011;71993;52.478;-1.918;2023-08-06T04:27:48;3.40;;;1.80;;
61330;SDS011;71993;52.478;-1.918;2023-08-06T04:30:20;2.22;;;1.60;;
61330;SDS011;71993;52.478;-1.918;2023-08-06T04:32:59;3.15;;;1.67;;
61330;SDS011;71993;52.478;-1.918;2023-08-06T04:35:32;3.42;;;2.00;;
61330;SDS011;71993;52.478;-1.918;2023-08-06T04:38:03;3.65;;;1.98;;
61330;SDS011;71993;52.478;-1.918;2023-08-06T04:40:33;2.88;;;1.70;;
61330;SDS011;71993;52.478;-1.918;2023-08-06T04:43:04;2.25;;;1.65;;
61330;SDS011;71993;52.478;-1.918;2023-08-06T04:45:36;2.92;;;1.98;;
61330;SDS011;71993;52.478;-1.918;2023-08-06T04:48:06;3.58;;;1.77;;
61330;SDS011;71993;52.478;-1.918;2023-08-06T04:50:41;2.53;;;1.67;;
61330;SDS011;71993;52.478;-1.918;2023-08-06T04:53:13;3.67;;;1.75;;
61330;SDS011;71993;52.478;-1.918;2023-08-06T04:55:43;2.95;;;1.70;;
61330;SDS011;71993;52.478;-1.918;2023-08-06T04:58:14;3.22;;;1.73;;
61330;SDS011;71993;52.478;-1.918;2023-08-06T05:00:45;2.85;;;1.60;;
61330;SDS011;71993;52.478;-1.918;2023-08-06T05:03:15;4.30;;;1.80;;
61330;SDS011;71993;52.478;-1.918;2023-08-06T05:05:49;4.18;;;1.83;;
61330;SDS011;71993;52.478;-1.918;2023-08-06T05:08:19;3.67;;;1.75;;
61330;SDS011;71993;52.478;-1.918;2023-08-06T05:10:50;3.28;;;1.70;;
61330;SDS011;71993;52.478;-1.918;2023-08-06T05:13:20;2.42;;;1.75;;
61330;SDS011;71993;52.478;-1.918;2023-08-06T05:15:51;2.35;;;1.60;;
61330;SDS011;71993;52.478;-1.918;2023-08-06T05:18:25;2.53;;;1.80;;
61330;SDS011;71993;52.478;-1.918;2023-08-06T05:21:00;2.53;;;1.42;;
61330;SDS011;71993;52.478;-1.918;2023-08-06T05:23:31;2.83;;;1.65;;
61330;SDS011;71993;52.478;-1.918;2023-08-06T05:26:01;2.53;;;1.60;;
61330;SDS011;71993;52.478;-1.918;2023-08-06T05:28:32;2.85;;;1.80;;
61330;SDS011;71993;52.478;-1.918;2023-08-06T05:31:03;2.17;;;1.40;;
61330;SDS011;71993;52.478;-1.918;2023-08-06T05:33:34;2.30;;;1.70;;
61330;SDS011;71993;52.478;-1.918;2023-08-06T05:36:07;3.00;;;1.70;;
61330;SDS011;71993;52.478;-1.918;2023-08-06T05:38:37;2.20;;;1.60;;
61330;SDS011;71993;52.478;-1.918;2023-08-06T05:41:08;3.72;;;1.77;;
61330;SDS011;71993;52.478;-1.918;2023-08-06T05:43:38;3.78;;;1.77;;
61330;SDS011;71993;52.478;-1.918;2023-08-06T05:46:09;2.97;;;1.65;;
61330;SDS011;71993;52.478;-1.918;2023-08-06T05:48:39;2.15;;;1.50;;
61330;SDS011;71993;52.478;-1.918;2023-08-06T05:51:12;3.75;;;1.67;;
61330;SDS011;71993;52.478;-1.918;2023-08-06T05:53:44;3.20;;;1.33;;
61330;SDS011;71993;52.478;-1.918;2023-08-06T05:56:17;2.80;;;1.60;;
61330;SDS011;71993;52.478;-1.918;2023-08-06T05:58:47;2.28;;;1.50;;
61330;SDS011;71993;52.478;-1.918;2023-08-06T06:01:20;3.83;;;1.70;;
61330;SDS011;71993;52.478;-1.918;2023-08-06T06:03:51;3.72;;;1.33;;
61330;SDS011;71993;52.478;-1.918;2023-08-06T06:06:24;2.80;;;1.48;;
61330;SDS011;71993;52.478;-1.918;2023-08-06T06:08:55;3.97;;;1.60;;
61330;SDS011;71993;52.478;-1.918;2023-08-06T06:11:26;2.42;;;1.48;;
61330;SDS011;71993;52.478;-1.918;2023-08-06T06:13:56;2.40;;;1.45;;
61330;SDS011;71993;52.478;-1.918;2023-08-06T06:16:27;2.53;;;1.48;;
61330;SDS011;71993;52.478;-1.918;2023-08-06T06:18:57;4.32;;;1.50;;
61330;SDS011;71993;52.478;-1.918;2023-08-06T06:21:30;3.17;;;1.35;;
61330;SDS011;71993;52.478;-1.918;2023-08-06T06:24:01;5.82;;;1.55;;
61330;SDS011;71993;52.478;-1.918;2023-08-06T06:26:32;2.25;;;1.45;;
61330;SDS011;71993;52.478;-1.918;2023-08-06T06:29:02;3.15;;;1.42;;
61330;SDS011;71993;52.478;-1.918;2023-08-06T06:31:33;2.85;;;1.45;;
61330;SDS011;71993;52.478;-1.918;2023-08-06T06:34:03;3.72;;;1.38;;
61330;SDS011;71993;52.478;-1.918;2023-08-06T06:36:37;2.10;;;1.40;;
61330;SDS011;71993;52.478;-1.918;2023-08-06T06:39:08;2.15;;;1.20;;
61330;SDS011;71993;52.478;-1.918;2023-08-06T06:41:38;3.38;;;1.50;;
61330;SDS011;71993;52.478;-1.918;2023-08-06T06:44:19;2.88;;;1.30;;
61330;SDS011;71993;52.478;-1.918;2023-08-06T06:46:49;4.72;;;1.65;;
61330;SDS011;71993;52.478;-1.918;2023-08-06T06:49:20;3.38;;;1.40;;
61330;SDS011;71993;52.478;-1.918;2023-08-06T06:51:53;1.67;;;1.38;;
61330;SDS011;71993;52.478;-1.918;2023-08-06T06:54:24;2.80;;;1.42;;
61330;SDS011;71993;52.478;-1.918;2023-08-06T06:56:56;2.53;;;1.45;;
61330;SDS011;71993;52.478;-1.918;2023-08-06T06:59:28;3.08;;;1.50;;
61330;SDS011;71993;52.478;-1.918;2023-08-06T07:01:58;1.73;;;1.33;;
61330;SDS011;71993;52.478;-1.918;2023-08-06T07:04:29;2.15;;;1.27;;
61330;SDS011;71993;52.478;-1.918;2023-08-06T07:07:02;2.40;;;1.30;;
61330;SDS011;71993;52.478;-1.918;2023-08-06T07:09:33;3.33;;;1.40;;
61330;SDS011;71993;52.478;-1.918;2023-08-06T07:12:06;1.88;;;1.25;;
61330;SDS011;71993;52.478;-1.918;2023-08-06T07:14:36;2.78;;;1.30;;
61330;SDS011;71993;52.478;-1.918;2023-08-06T07:17:07;3.25;;;1.45;;
61330;SDS011;71993;52.478;-1.918;2023-08-06T07:19:38;2.38;;;1.25;;
61330;SDS011;71993;52.478;-1.918;2023-08-06T07:22:12;2.15;;;1.17;;
61330;SDS011;71993;52.478;-1.918;2023-08-06T07:24:42;3.35;;;1.20;;
61330;SDS011;71993;52.478;-1.918;2023-08-06T07:27:13;3.00;;;1.45;;
61330;SDS011;71993;52.478;-1.918;2023-08-06T07:29:43;2.35;;;1.35;;
61330;SDS011;71993;52.478;-1.918;2023-08-06T07:32:15;2.00;;;1.30;;
61330;SDS011;71993;52.478;-1.918;2023-08-06T07:34:46;2.45;;;1.30;;
61330;SDS011;71993;52.478;-1.918;2023-08-06T07:37:19;1.88;;;1.23;;
61330;SDS011;71993;52.478;-1.918;2023-08-06T07:39:49;3.75;;;1.50;;
61330;SDS011;71993;52.478;-1.918;2023-08-06T07:42:20;3.35;;;1.30;;
61330;SDS011;71993;52.478;-1.918;2023-08-06T07:44:51;3.10;;;1.27;;
61330;SDS011;71993;52.478;-1.918;2023-08-06T07:47:22;3.33;;;1.38;;
61330;SDS011;71993;52.478;-1.918;2023-08-06T07:49:53;2.42;;;1.30;;
61330;SDS011;71993;52.478;-1.918;2023-08-06T07:52:29;3.00;;;1.23;;
61330;SDS011;71993;52.478;-1.918;2023-08-06T07:54:59;2.53;;;1.30;;
61330;SDS011;71993;52.478;-1.918;2023-08-06T07:57:33;2.53;;;1.33;;
61330;SDS011;71993;52.478;-1.918;2023-08-06T08:00:05;1.75;;;1.10;;
61330;SDS011;71993;52.478;-1.918;2023-08-06T08:02:40;3.22;;;1.40;;
61330;SDS011;71993;52.478;-1.918;2023-08-06T08:05:11;2.22;;;1.30;;
61330;SDS011;71993;52.478;-1.918;2023-08-06T08:07:44;3.60;;;1.75;;
61330;SDS011;71993;52.478;-1.918;2023-08-06T08:10:15;3.83;;;1.50;;
61330;SDS011;71993;52.478;-1.918;2023-08-06T08:12:46;3.70;;;1.50;;
61330;SDS011;71993;52.478;-1.918;2023-08-06T08:15:16;3.10;;;1.40;;
61330;SDS011;71993;52.478;-1.918;2023-08-06T08:17:47;2.65;;;1.40;;
61330;SDS011;71993;52.478;-1.918;2023-08-06T08:20:18;2.33;;;1.48;;
61330;SDS011;71993;52.478;-1.918;2023-08-06T08:22:51;3.20;;;1.30;;
61330;SDS011;71993;52.478;-1.918;2023-08-06T08:25:22;2.03;;;1.20;;
61330;SDS011;71993;52.478;-1.918;2023-08-06T08:27:54;1.50;;;1.17;;
61330;SDS011;71993;52.478;-1.918;2023-08-06T08:30:25;3.28;;;1.55;;
61330;SDS011;71993;52.478;-1.918;2023-08-06T08:32:55;2.15;;;1.20;;
61330;SDS011;71993;52.478;-1.918;2023-08-06T08:35:26;2.55;;;1.27;;
61330;SDS011;71993;52.478;-1.918;2023-08-06T08:37:59;2.78;;;1.55;;
61330;SDS011;71993;52.478;-1.918;2023-08-06T08:40:31;2.85;;;1.30;;
61330;SDS011;71993;52.478;-1.918;2023-08-06T08:43:02;2.33;;;1.30;;
61330;SDS011;71993;52.478;-1.918;2023-08-06T08:45:32;2.28;;;1.27;;
61330;SDS011;71993;52.478;-1.918;2023-08-06T08:48:04;2.17;;;1.20;;
61330;SDS011;71993;52.478;-1.918;2023-08-06T08:50:35;1.85;;;1.20;;
61330;SDS011;71993;52.478;-1.918;2023-08-06T08:53:08;2.33;;;1.33;;
61330;SDS011;71993;52.478;-1.918;2023-08-06T08:55:41;1.50;;;1.10;;
61330;SDS011;71993;52.478;-1.918;2023-08-06T08:58:13;3.05;;;1.30;;
61330;SDS011;71993;52.478;-1.918;2023-08-06T09:00:43;3.10;;;1.38;;
61330;SDS011;71993;52.478;-1.918;2023-08-06T09:03:15;2.45;;;1.30;;
61330;SDS011;71993;52.478;-1.918;2023-08-06T09:05:47;2.10;;;1.20;;
61330;SDS011;71993;52.478;-1.918;2023-08-06T09:08:23;2.03;;;1.30;;
61330;SDS011;71993;52.478;-1.918;2023-08-06T09:10:54;2.08;;;1.25;;
61330;SDS011;71993;52.478;-1.918;2023-08-06T09:13:26;3.83;;;1.50;;
61330;SDS011;71993;52.478;-1.918;2023-08-06T09:15:57;2.97;;;1.30;;
61330;SDS011;71993;52.478;-1.918;2023-08-06T09:18:27;2.38;;;1.40;;
61330;SDS011;71993;52.478;-1.918;2023-08-06T09:20:59;3.58;;;1.40;;
61330;SDS011;71993;52.478;-1.918;2023-08-06T09:23:35;3.05;;;1.30;;
61330;SDS011;71993;52.478;-1.918;2023-08-06T09:26:08;4.75;;;1.40;;
61330;SDS011;71993;52.478;-1.918;2023-08-06T09:28:41;2.42;;;1.30;;
61330;SDS011;71993;52.478;-1.918;2023-08-06T09:31:12;3.50;;;1.75;;
61330;SDS011;71993;52.478;-1.918;2023-08-06T09:33:42;2.83;;;1.52;;
61330;SDS011;71993;52.478;-1.918;2023-08-06T09:36:16;1.90;;;1.30;;
61330;SDS011;71993;52.478;-1.918;2023-08-06T09:38:50;2.10;;;1.30;;
61330;SDS011;71993;52.478;-1.918;2023-08-06T09:41:26;1.70;;;1.15;;
61330;SDS011;71993;52.478;-1.918;2023-08-06T09:43:59;2.85;;;1.33;;
61330;SDS011;71993;52.478;-1.918;2023-08-06T09:46:29;2.20;;;1.30;;
61330;SDS011;71993;52.478;-1.918;2023-08-06T09:49:02;1.98;;;1.30;;
